sensor_id;sensor_type;location;lat;lon;timestamp;temperature;humidity
10826;DHT22;5466;55.898;14.094;2023-11-21T00:00:50;2.40;99.90
10826;DHT22;5466;55.898;14.094;2023-11-21T00:02:50;2.50;99.90
10826;DHT22;5466;55.898;14.094;2023-11-21T00:04:51;2.50;99.90
10826;DHT22;5466;55.898;14.094;2023-11-21T00:06:52;2.50;99.90
10826;DHT22;5466;55.898;14.094;2023-11-21T00:08:53;2.70;99.90
10826;DHT22;5466;55.898;14.094;2023-11-21T00:10:53;2.60;99.90
10826;DHT22;5466;55.898;14.094;2023-11-21T00:12:55;2.60;99.90
10826;DHT22;5466;55.898;14.094;2023-11-21T00:14:55;2.70;99.90
10826;DHT22;5466;55.898;14.094;2023-11-21T00:16:56;2.70;99.90
10826;DHT22;5466;55.898;14.094;2023-11-21T00:18:57;2.70;99.90
10826;DHT22;5466;55.898;14.094;2023-11-21T00:20:57;2.70;99.90
10826;DHT22;5466;55.898;14.094;2023-11-21T00:22:59;2.80;99.90
10826;DHT22;5466;55.898;14.094;2023-11-21T00:25:00;2.80;99.90
10826;DHT22;5466;55.898;14.094;2023-11-21T00:27:00;2.80;99.90
10826;DHT22;5466;55.898;14.094;2023-11-21T00:29:01;2.80;99.90
10826;DHT22;5466;55.898;14.094;2023-11-21T00:31:02;2.80;99.90
10826;DHT22;5466;55.898;14.094;2023-11-21T00:33:04;2.90;99.90
10826;DHT22;5466;55.898;14.094;2023-11-21T00:35:05;2.90;99.90
10826;DHT22;5466;55.898;14.094;2023-11-21T00:37:06;2.80;99.90
10826;DHT22;5466;55.898;14.094;2023-11-21T00:39:08;2.90;99.90
10826;DHT22;5466;55.898;14.094;2023-11-21T00:41:09;2.90;99.90
10826;DHT22;5466;55.898;14.094;2023-11-21T00:43:09;3.00;99.90
10826;DHT22;5466;55.898;14.094;2023-11-21T00:45:10;3.00;99.90
10826;DHT22;5466;55.898;14.094;2023-11-21T00:47:11;3.00;99.90
10826;DHT22;5466;55.898;14.094;2023-11-21T00:49:12;3.00;99.90
10826;DHT22;5466;55.898;14.094;2023-11-21T00:51:13;3.10;99.90
10826;DHT22;5466;55.898;14.094;2023-11-21T00:53:14;3.00;99.90
10826;DHT22;5466;55.898;14.094;2023-11-21T00:55:14;3.10;99.90
10826;DHT22;5466;55.898;14.094;2023-11-21T00:57:16;3.10;99.90
10826;DHT22;5466;55.898;14.094;2023-11-21T00:59:16;3.10;99.90
10826;DHT22;5466;55.898;14.094;2023-11-21T01:01:17;3.10;99.90
10826;DHT22;5466;55.898;14.094;2023-11-21T01:03:18;3.10;99.90
10826;DHT22;5466;55.898;14.094;2023-11-21T01:05:19;3.20;99.90
10826;DHT22;5466;55.898;14.094;2023-11-21T01:07:20;3.10;99.90
10826;DHT22;5466;55.898;14.094;2023-11-21T01:09:20;3.20;99.90
10826;DHT22;5466;55.898;14.094;2023-11-21T01:11:21;3.20;99.90
10826;DHT22;5466;55.898;14.094;2023-11-21T01:13:22;3.10;99.90
10826;DHT22;5466;55.898;14.094;2023-11-21T01:15:22;3.20;99.90
10826;DHT22;5466;55.898;14.094;2023-11-21T01:17:23;3.20;99.90
10826;DHT22;5466;55.898;14.094;2023-11-21T01:19:24;3.20;99.90
10826;DHT22;5466;55.898;14.094;2023-11-21T01:21:25;3.20;99.90
10826;DHT22;5466;55.898;14.094;2023-11-21T01:23:26;3.20;99.90
10826;DHT22;5466;55.898;14.094;2023-11-21T01:25:27;3.20;99.90
10826;DHT22;5466;55.898;14.094;2023-11-21T01:27:27;3.20;99.90
10826;DHT22;5466;55.898;14.094;2023-11-21T01:29:28;3.20;99.90
10826;DHT22;5466;55.898;14.094;2023-11-21T01:31:29;3.20;99.90
10826;DHT22;5466;55.898;14.094;2023-11-21T01:33:30;3.20;99.90
10826;DHT22;5466;55.898;14.094;2023-11-21T01:35:30;3.20;99.90
10826;DHT22;5466;55.898;14.094;2023-11-21T01:37:31;3.20;99.90
10826;DHT22;5466;55.898;14.094;2023-11-21T01:39:32;3.20;99.90
10826;DHT22;5466;55.898;14.094;2023-11-21T01:41:32;3.20;99.90
10826;DHT22;5466;55.898;14.094;2023-11-21T01:43:33;3.20;99.90
10826;DHT22;5466;55.898;14.094;2023-11-21T01:45:34;3.20;99.90
10826;DHT22;5466;55.898;14.094;2023-11-21T01:47:34;3.20;99.90
10826;DHT22;5466;55.898;14.094;2023-11-21T01:49:36;3.20;99.90
10826;DHT22;5466;55.898;14.094;2023-11-21T01:51:38;3.20;99.90
10826;DHT22;5466;55.898;14.094;2023-11-21T01:53:39;3.10;99.90
10826;DHT22;5466;55.898;14.094;2023-11-21T01:55:41;3.20;99.90
10826;DHT22;5466;55.898;14.094;2023-11-21T01:57:42;3.20;99.90
10826;DHT22;5466;55.898;14.094;2023-11-21T01:59:44;3.20;99.90
10826;DHT22;5466;55.898;14.094;2023-11-21T02:01:45;3.30;99.90
10826;DHT22;5466;55.898;14.094;2023-11-21T02:03:47;3.30;99.90
10826;DHT22;5466;55.898;14.094;2023-11-21T02:05:47;3.30;99.90
10826;DHT22;5466;55.898;14.094;2023-11-21T02:07:48;3.30;99.90
10826;DHT22;5466;55.898;14.094;2023-11-21T02:09:49;3.30;99.90
10826;DHT22;5466;55.898;14.094;2023-11-21T02:11:49;3.30;99.90
10826;DHT22;5466;55.898;14.094;2023-11-21T02:13:50;3.30;99.90
10826;DHT22;5466;55.898;14.094;2023-11-21T02:15:54;3.30;99.90
10826;DHT22;5466;55.898;14.094;2023-11-21T02:17:55;3.40;99.90
10826;DHT22;5466;55.898;14.094;2023-11-21T02:19:55;3.40;99.90
10826;DHT22;5466;55.898;14.094;2023-11-21T02:21:57;3.40;99.90
10826;DHT22;5466;55.898;14.094;2023-11-21T02:24:07;3.40;99.90
10826;DHT22;5466;55.898;14.094;2023-11-21T02:26:08;3.40;99.90
10826;DHT22;5466;55.898;14.094;2023-11-21T02:28:10;3.40;99.90
10826;DHT22;5466;55.898;14.094;2023-11-21T02:30:13;3.40;99.90
10826;DHT22;5466;55.898;14.094;2023-11-21T02:32:14;3.40;99.90
10826;DHT22;5466;55.898;14.094;2023-11-21T02:34:15;3.40;99.90
10826;DHT22;5466;55.898;14.094;2023-11-21T02:36:16;3.50;99.90
10826;DHT22;5466;55.898;14.094;2023-11-21T02:38:17;3.50;99.90
10826;DHT22;5466;55.898;14.094;2023-11-21T02:40:18;3.50;99.90
10826;DHT22;5466;55.898;14.094;2023-11-21T02:42:18;3.50;99.90
10826;DHT22;5466;55.898;14.094;2023-11-21T02:44:19;3.60;99.90
10826;DHT22;5466;55.898;14.094;2023-11-21T02:46:20;3.60;99.90
10826;DHT22;5466;55.898;14.094;2023-11-21T02:48:20;3.60;99.90
10826;DHT22;5466;55.898;14.094;2023-11-21T02:50:24;3.60;99.90
10826;DHT22;5466;55.898;14.094;2023-11-21T02:52:25;3.60;99.90
10826;DHT22;5466;55.898;14.094;2023-11-21T02:54:25;3.60;99.90
10826;DHT22;5466;55.898;14.094;2023-11-21T02:56:28;3.60;99.90
10826;DHT22;5466;55.898;14.094;2023-11-21T02:58:28;3.60;99.90
10826;DHT22;5466;55.898;14.094;2023-11-21T03:00:29;3.60;99.90
10826;DHT22;5466;55.898;14.094;2023-11-21T03:02:30;3.60;99.90
10826;DHT22;5466;55.898;14.094;2023-11-21T03:04:30;3.60;99.90
10826;DHT22;5466;55.898;14.094;2023-11-21T03:06:32;3.60;99.90
10826;DHT22;5466;55.898;14.094;2023-11-21T03:08:34;3.50;99.90
10826;DHT22;5466;55.898;14.094;2023-11-21T03:10:35;3.50;99.90
10826;DHT22;5466;55.898;14.094;2023-11-21T03:12:36;3.50;99.90
10826;DHT22;5466;55.898;14.094;2023-11-21T03:14:37;3.50;99.90
10826;DHT22;5466;55.898;14.094;2023-11-21T03:16:37;3.50;99.90
10826;DHT22;5466;55.898;14.094;2023-11-21T03:18:39;3.50;99.90
10826;DHT22;5466;55.898;14.094;2023-11-21T03:20:39;3.50;99.90
10826;DHT22;5466;55.898;14.094;2023-11-21T03:22:40;3.50;99.90
10826;DHT22;5466;55.898;14.094;2023-11-21T03:24:41;3.40;99.90
10826;DHT22;5466;55.898;14.094;2023-11-21T03:26:41;3.50;99.90
10826;DHT22;5466;55.898;14.094;2023-11-21T03:28:42;3.50;99.90
10826;DHT22;5466;55.898;14.094;2023-11-21T03:30:42;3.60;99.90
10826;DHT22;5466;55.898;14.094;2023-11-21T03:32:43;3.50;99.90
10826;DHT22;5466;55.898;14.094;2023-11-21T03:34:54;3.50;99.90
10826;DHT22;5466;55.898;14.094;2023-11-21T03:36:56;3.40;99.90
10826;DHT22;5466;55.898;14.094;2023-11-21T03:38:57;3.50;99.90
10826;DHT22;5466;55.898;14.094;2023-11-21T03:40:57;3.50;99.90
10826;DHT22;5466;55.898;14.094;2023-11-21T03:42:58;3.50;99.90
10826;DHT22;5466;55.898;14.094;2023-11-21T03:44:59;3.50;99.90
10826;DHT22;5466;55.898;14.094;2023-11-21T03:46:59;3.40;99.90
10826;DHT22;5466;55.898;14.094;2023-11-21T03:49:00;3.40;99.90
10826;DHT22;5466;55.898;14.094;2023-11-21T03:51:01;3.40;99.90
10826;DHT22;5466;55.898;14.094;2023-11-21T03:53:01;3.40;99.90
10826;DHT22;5466;55.898;14.094;2023-11-21T03:55:02;3.40;99.90
10826;DHT22;5466;55.898;14.094;2023-11-21T03:57:03;3.40;99.90
10826;DHT22;5466;55.898;14.094;2023-11-21T03:59:04;3.40;99.90
10826;DHT22;5466;55.898;14.094;2023-11-21T04:01:05;3.40;99.90
10826;DHT22;5466;55.898;14.094;2023-11-21T04:03:05;3.30;99.90
10826;DHT22;5466;55.898;14.094;2023-11-21T04:05:06;3.30;99.90
10826;DHT22;5466;55.898;14.094;2023-11-21T04:07:07;3.30;99.90
10826;DHT22;5466;55.898;14.094;2023-11-21T04:09:08;3.30;99.90
10826;DHT22;5466;55.898;14.094;2023-11-21T04:11:08;3.30;99.90
10826;DHT22;5466;55.898;14.094;2023-11-21T04:13:09;3.20;99.90
10826;DHT22;5466;55.898;14.094;2023-11-21T04:15:11;3.20;99.90
10826;DHT22;5466;55.898;14.094;2023-11-21T04:17:13;3.20;99.90
10826;DHT22;5466;55.898;14.094;2023-11-21T04:19:14;3.10;99.90
10826;DHT22;5466;55.898;14.094;2023-11-21T04:21:15;3.10;99.90
10826;DHT22;5466;55.898;14.094;2023-11-21T04:23:15;3.10;99.90
10826;DHT22;5466;55.898;14.094;2023-11-21T04:25:16;3.10;99.90
10826;DHT22;5466;55.898;14.094;2023-11-21T04:27:17;3.10;99.90
10826;DHT22;5466;55.898;14.094;2023-11-21T04:29:18;3.10;99.90
10826;DHT22;5466;55.898;14.094;2023-11-21T04:31:19;3.10;99.90
10826;DHT22;5466;55.898;14.094;2023-11-21T04:33:19;3.10;99.90
10826;DHT22;5466;55.898;14.094;2023-11-21T04:35:21;3.10;99.90
10826;DHT22;5466;55.898;14.094;2023-11-21T04:37:22;3.10;99.90
10826;DHT22;5466;55.898;14.094;2023-11-21T04:39:23;3.00;99.90
10826;DHT22;5466;55.898;14.094;2023-11-21T04:41:24;3.00;99.90
10826;DHT22;5466;55.898;14.094;2023-11-21T04:43:24;3.00;99.90
10826;DHT22;5466;55.898;14.094;2023-11-21T04:45:25;3.00;99.90
10826;DHT22;5466;55.898;14.094;2023-11-21T04:47:25;3.00;99.90
10826;DHT22;5466;55.898;14.094;2023-11-21T04:49:26;3.00;99.90
10826;DHT22;5466;55.898;14.094;2023-11-21T04:51:27;3.00;99.90
10826;DHT22;5466;55.898;14.094;2023-11-21T04:53:27;3.00;99.90
10826;DHT22;5466;55.898;14.094;2023-11-21T04:55:28;3.00;99.90
10826;DHT22;5466;55.898;14.094;2023-11-21T04:57:29;2.90;99.90
10826;DHT22;5466;55.898;14.094;2023-11-21T04:59:29;2.90;99.90
10826;DHT22;5466;55.898;14.094;2023-11-21T05:01:30;2.90;99.90
10826;DHT22;5466;55.898;14.094;2023-11-21T05:03:31;2.90;99.90
10826;DHT22;5466;55.898;14.094;2023-11-21T05:05:32;2.90;99.90
10826;DHT22;5466;55.898;14.094;2023-11-21T05:07:34;3.00;99.90
10826;DHT22;5466;55.898;14.094;2023-11-21T05:09:35;3.00;99.90
10826;DHT22;5466;55.898;14.094;2023-11-21T05:11:37;3.00;99.90
10826;DHT22;5466;55.898;14.094;2023-11-21T05:13:38;3.00;99.90
10826;DHT22;5466;55.898;14.094;2023-11-21T05:15:39;2.90;99.90
10826;DHT22;5466;55.898;14.094;2023-11-21T05:17:40;3.00;99.90
10826;DHT22;5466;55.898;14.094;2023-11-21T05:19:50;2.90;99.90
10826;DHT22;5466;55.898;14.094;2023-11-21T05:21:50;2.90;99.90
10826;DHT22;5466;55.898;14.094;2023-11-21T05:23:51;3.00;99.90
10826;DHT22;5466;55.898;14.094;2023-11-21T05:25:51;3.00;99.90
10826;DHT22;5466;55.898;14.094;2023-11-21T05:27:52;3.00;99.90
10826;DHT22;5466;55.898;14.094;2023-11-21T05:29:53;3.00;99.90
10826;DHT22;5466;55.898;14.094;2023-11-21T05:31:54;3.00;99.90
10826;DHT22;5466;55.898;14.094;2023-11-21T05:33:55;3.00;99.90
10826;DHT22;5466;55.898;14.094;2023-11-21T05:35:56;3.10;99.90
10826;DHT22;5466;55.898;14.094;2023-11-21T05:37:57;3.00;99.90
10826;DHT22;5466;55.898;14.094;2023-11-21T05:39:57;3.00;99.90
10826;DHT22;5466;55.898;14.094;2023-11-21T05:41:58;3.00;99.90
10826;DHT22;5466;55.898;14.094;2023-11-21T05:44:00;2.90;99.90
10826;DHT22;5466;55.898;14.094;2023-11-21T05:46:01;2.90;99.90
10826;DHT22;5466;55.898;14.094;2023-11-21T05:48:02;2.90;99.90
10826;DHT22;5466;55.898;14.094;2023-11-21T05:50:04;2.90;99.90
10826;DHT22;5466;55.898;14.094;2023-11-21T05:52:06;2.90;99.90
10826;DHT22;5466;55.898;14.094;2023-11-21T05:54:06;2.90;99.90
10826;DHT22;5466;55.898;14.094;2023-11-21T05:56:08;2.80;99.90
10826;DHT22;5466;55.898;14.094;2023-11-21T05:58:09;2.80;99.90
10826;DHT22;5466;55.898;14.094;2023-11-21T06:00:13;2.70;99.90
10826;DHT22;5466;55.898;14.094;2023-11-21T06:02:20;2.70;99.90
10826;DHT22;5466;55.898;14.094;2023-11-21T06:04:21;2.60;99.90
10826;DHT22;5466;55.898;14.094;2023-11-21T06:06:24;2.50;99.90
10826;DHT22;5466;55.898;14.094;2023-11-21T06:08:26;2.50;99.90
10826;DHT22;5466;55.898;14.094;2023-11-21T06:10:27;2.40;99.90
10826;DHT22;5466;55.898;14.094;2023-11-21T06:12:28;2.40;99.90
10826;DHT22;5466;55.898;14.094;2023-11-21T06:14:29;2.30;99.90
10826;DHT22;5466;55.898;14.094;2023-11-21T06:16:30;2.30;99.90
10826;DHT22;5466;55.898;14.094;2023-11-21T06:18:30;2.20;99.90
10826;DHT22;5466;55.898;14.094;2023-11-21T06:20:32;2.10;99.90
10826;DHT22;5466;55.898;14.094;2023-11-21T06:22:32;2.00;99.90
10826;DHT22;5466;55.898;14.094;2023-11-21T06:24:33;2.00;99.90
10826;DHT22;5466;55.898;14.094;2023-11-21T06:26:33;1.90;99.90
10826;DHT22;5466;55.898;14.094;2023-11-21T06:28:35;1.80;99.90
10826;DHT22;5466;55.898;14.094;2023-11-21T06:30:38;1.80;99.90
10826;DHT22;5466;55.898;14.094;2023-11-21T06:32:39;1.70;99.90
10826;DHT22;5466;55.898;14.094;2023-11-21T06:34:40;1.60;99.90
10826;DHT22;5466;55.898;14.094;2023-11-21T06:36:41;1.60;99.90
10826;DHT22;5466;55.898;14.094;2023-11-21T06:38:41;1.50;99.90
10826;DHT22;5466;55.898;14.094;2023-11-21T06:40:42;1.40;99.90
10826;DHT22;5466;55.898;14.094;2023-11-21T06:42:42;1.40;99.90
10826;DHT22;5466;55.898;14.094;2023-11-21T06:44:45;1.40;99.90
10826;DHT22;5466;55.898;14.094;2023-11-21T06:46:45;1.40;99.90
10826;DHT22;5466;55.898;14.094;2023-11-21T06:48:46;1.40;99.90
10826;DHT22;5466;55.898;14.094;2023-11-21T06:50:49;1.30;99.90
10826;DHT22;5466;55.898;14.094;2023-11-21T06:52:49;1.20;99.90
10826;DHT22;5466;55.898;14.094;2023-11-21T06:54:50;1.20;99.90
10826;DHT22;5466;55.898;14.094;2023-11-21T06:56:51;1.10;99.90
10826;DHT22;5466;55.898;14.094;2023-11-21T06:58:53;1.10;99.90
10826;DHT22;5466;55.898;14.094;2023-11-21T07:00:54;1.10;99.90
10826;DHT22;5466;55.898;14.094;2023-11-21T07:02:55;1.20;99.90
10826;DHT22;5466;55.898;14.094;2023-11-21T07:04:56;1.10;99.90
10826;DHT22;5466;55.898;14.094;2023-11-21T07:06:56;1.10;99.90
10826;DHT22;5466;55.898;14.094;2023-11-21T07:08:57;1.10;99.90
10826;DHT22;5466;55.898;14.094;2023-11-21T07:10:58;1.20;99.90
10826;DHT22;5466;55.898;14.094;2023-11-21T07:12:59;1.20;99.90
10826;DHT22;5466;55.898;14.094;2023-11-21T07:15:00;1.20;99.90
10826;DHT22;5466;55.898;14.094;2023-11-21T07:17:00;1.20;99.90
10826;DHT22;5466;55.898;14.094;2023-11-21T07:19:01;1.20;99.90
10826;DHT22;5466;55.898;14.094;2023-11-21T07:21:01;1.30;99.90
10826;DHT22;5466;55.898;14.094;2023-11-21T07:23:02;1.40;99.90
10826;DHT22;5466;55.898;14.094;2023-11-21T07:25:04;1.50;99.90
10826;DHT22;5466;55.898;14.094;2023-11-21T07:27:05;1.60;99.90
10826;DHT22;5466;55.898;14.094;2023-11-21T07:29:06;1.70;99.90
10826;DHT22;5466;55.898;14.094;2023-11-21T07:31:07;1.70;99.90
10826;DHT22;5466;55.898;14.094;2023-11-21T07:33:07;1.70;99.90
10826;DHT22;5466;55.898;14.094;2023-11-21T07:35:08;1.80;99.90
10826;DHT22;5466;55.898;14.094;2023-11-21T07:37:09;1.80;99.90
10826;DHT22;5466;55.898;14.094;2023-11-21T07:39:09;1.90;99.90
10826;DHT22;5466;55.898;14.094;2023-11-21T07:41:11;1.90;99.90
10826;DHT22;5466;55.898;14.094;2023-11-21T07:43:12;2.00;99.90
10826;DHT22;5466;55.898;14.094;2023-11-21T07:45:12;2.00;99.90
10826;DHT22;5466;55.898;14.094;2023-11-21T07:47:13;2.10;99.90
10826;DHT22;5466;55.898;14.094;2023-11-21T07:49:14;2.20;99.90
10826;DHT22;5466;55.898;14.094;2023-11-21T07:51:20;2.20;99.90
10826;DHT22;5466;55.898;14.094;2023-11-21T07:53:22;2.30;99.90
10826;DHT22;5466;55.898;14.094;2023-11-21T07:55:23;2.30;99.90
10826;DHT22;5466;55.898;14.094;2023-11-21T07:57:25;2.40;99.90
10826;DHT22;5466;55.898;14.094;2023-11-21T07:59:26;2.40;99.90
10826;DHT22;5466;55.898;14.094;2023-11-21T08:01:27;2.40;99.90
10826;DHT22;5466;55.898;14.094;2023-11-21T08:03:28;2.40;99.90
10826;DHT22;5466;55.898;14.094;2023-11-21T08:05:32;2.50;99.90
10826;DHT22;5466;55.898;14.094;2023-11-21T08:07:33;2.50;99.90
10826;DHT22;5466;55.898;14.094;2023-11-21T08:09:34;2.40;99.90
10826;DHT22;5466;55.898;14.094;2023-11-21T08:11:34;2.60;99.90
10826;DHT22;5466;55.898;14.094;2023-11-21T08:13:35;2.60;99.90
10826;DHT22;5466;55.898;14.094;2023-11-21T08:15:36;2.60;99.90
10826;DHT22;5466;55.898;14.094;2023-11-21T08:17:38;2.60;99.90
10826;DHT22;5466;55.898;14.094;2023-11-21T08:19:39;2.60;99.90
10826;DHT22;5466;55.898;14.094;2023-11-21T08:21:39;2.60;99.90
10826;DHT22;5466;55.898;14.094;2023-11-21T08:23:40;2.60;99.90
10826;DHT22;5466;55.898;14.094;2023-11-21T08:25:45;2.60;99.90
10826;DHT22;5466;55.898;14.094;2023-11-21T08:27:46;2.60;99.90
10826;DHT22;5466;55.898;14.094;2023-11-21T08:29:46;2.60;99.90
10826;DHT22;5466;55.898;14.094;2023-11-21T08:31:47;2.60;99.90
10826;DHT22;5466;55.898;14.094;2023-11-21T08:33:48;2.60;99.90
10826;DHT22;5466;55.898;14.094;2023-11-21T08:35:49;2.60;99.90
10826;DHT22;5466;55.898;14.094;2023-11-21T08:37:52;2.60;99.90
10826;DHT22;5466;55.898;14.094;2023-11-21T08:39:53;2.70;99.90
10826;DHT22;5466;55.898;14.094;2023-11-21T08:41:54;2.70;99.90
10826;DHT22;5466;55.898;14.094;2023-11-21T08:43:55;2.60;99.90
10826;DHT22;5466;55.898;14.094;2023-11-21T08:45:56;2.70;99.90
10826;DHT22;5466;55.898;14.094;2023-11-21T08:47:56;2.80;99.90
10826;DHT22;5466;55.898;14.094;2023-11-21T08:49:57;2.80;99.90
10826;DHT22;5466;55.898;14.094;2023-11-21T08:51:59;2.80;99.90
10826;DHT22;5466;55.898;14.094;2023-11-21T08:54:04;2.80;99.90
10826;DHT22;5466;55.898;14.094;2023-11-21T08:56:11;2.80;99.90
10826;DHT22;5466;55.898;14.094;2023-11-21T08:58:12;2.90;99.90
10826;DHT22;5466;55.898;14.094;2023-11-21T09:00:13;2.90;99.90
10826;DHT22;5466;55.898;14.094;2023-11-21T09:02:16;3.00;99.90
10826;DHT22;5466;55.898;14.094;2023-11-21T09:04:17;3.00;99.90
10826;DHT22;5466;55.898;14.094;2023-11-21T09:06:17;3.00;99.90
10826;DHT22;5466;55.898;14.094;2023-11-21T09:08:18;3.00;99.90
10826;DHT22;5466;55.898;14.094;2023-11-21T09:10:18;2.90;99.90
10826;DHT22;5466;55.898;14.094;2023-11-21T09:12:19;2.90;99.90
10826;DHT22;5466;55.898;14.094;2023-11-21T09:14:20;2.90;99.90
10826;DHT22;5466;55.898;14.094;2023-11-21T09:16:21;2.90;99.90
10826;DHT22;5466;55.898;14.094;2023-11-21T09:18:21;2.90;99.90
10826;DHT22;5466;55.898;14.094;2023-11-21T09:20:22;2.90;99.90
10826;DHT22;5466;55.898;14.094;2023-11-21T09:22:23;2.90;99.90
10826;DHT22;5466;55.898;14.094;2023-11-21T09:24:30;2.90;99.90
10826;DHT22;5466;55.898;14.094;2023-11-21T09:26:31;2.90;99.90
10826;DHT22;5466;55.898;14.094;2023-11-21T09:28:31;2.90;99.90
10826;DHT22;5466;55.898;14.094;2023-11-21T09:30:32;2.90;99.90
10826;DHT22;5466;55.898;14.094;2023-11-21T09:32:33;2.80;99.90
10826;DHT22;5466;55.898;14.094;2023-11-21T09:34:35;2.90;99.90
10826;DHT22;5466;55.898;14.094;2023-11-21T09:36:38;2.90;99.90
10826;DHT22;5466;55.898;14.094;2023-11-21T09:38:40;2.90;99.90
10826;DHT22;5466;55.898;14.094;2023-11-21T09:40:42;2.90;99.90
10826;DHT22;5466;55.898;14.094;2023-11-21T09:42:56;2.90;99.90
10826;DHT22;5466;55.898;14.094;2023-11-21T09:45:14;3.00;99.90
10826;DHT22;5466;55.898;14.094;2023-11-21T09:47:16;3.00;99.90
10826;DHT22;5466;55.898;14.094;2023-11-21T09:49:18;3.00;99.90
10826;DHT22;5466;55.898;14.094;2023-11-21T09:51:24;3.10;99.90
10826;DHT22;5466;55.898;14.094;2023-11-21T09:53:29;3.20;99.90
10826;DHT22;5466;55.898;14.094;2023-11-21T09:55:35;3.30;99.90
10826;DHT22;5466;55.898;14.094;2023-11-21T09:57:39;3.30;99.90
10826;DHT22;5466;55.898;14.094;2023-11-21T09:59:40;3.40;99.90
10826;DHT22;5466;55.898;14.094;2023-11-21T10:01:42;3.50;99.90
10826;DHT22;5466;55.898;14.094;2023-11-21T10:03:42;3.50;99.90
10826;DHT22;5466;55.898;14.094;2023-11-21T10:05:44;3.60;99.90
10826;DHT22;5466;55.898;14.094;2023-11-21T10:07:46;3.70;99.90
10826;DHT22;5466;55.898;14.094;2023-11-21T10:09:47;3.80;99.90
10826;DHT22;5466;55.898;14.094;2023-11-21T10:11:49;3.90;99.90
10826;DHT22;5466;55.898;14.094;2023-11-21T10:13:55;3.80;99.90
10826;DHT22;5466;55.898;14.094;2023-11-21T10:15:58;3.80;99.90
10826;DHT22;5466;55.898;14.094;2023-11-21T10:18:02;3.90;99.90
10826;DHT22;5466;55.898;14.094;2023-11-21T10:20:05;4.00;99.90
10826;DHT22;5466;55.898;14.094;2023-11-21T10:22:12;4.20;99.90
10826;DHT22;5466;55.898;14.094;2023-11-21T10:24:13;4.30;99.90
10826;DHT22;5466;55.898;14.094;2023-11-21T10:26:14;4.30;99.90
10826;DHT22;5466;55.898;14.094;2023-11-21T10:28:17;4.30;99.90
10826;DHT22;5466;55.898;14.094;2023-11-21T10:30:18;4.40;99.90
10826;DHT22;5466;55.898;14.094;2023-11-21T10:32:19;4.30;99.90
10826;DHT22;5466;55.898;14.094;2023-11-21T10:34:20;4.30;99.90
10826;DHT22;5466;55.898;14.094;2023-11-21T10:36:27;4.20;99.90
10826;DHT22;5466;55.898;14.094;2023-11-21T10:38:28;4.20;99.90
10826;DHT22;5466;55.898;14.094;2023-11-21T10:40:38;4.20;99.90
10826;DHT22;5466;55.898;14.094;2023-11-21T10:42:42;4.30;99.90
10826;DHT22;5466;55.898;14.094;2023-11-21T10:44:43;4.30;99.90
10826;DHT22;5466;55.898;14.094;2023-11-21T10:46:49;4.20;99.90
10826;DHT22;5466;55.898;14.094;2023-11-21T10:48:56;4.20;99.90
10826;DHT22;5466;55.898;14.094;2023-11-21T10:50:57;4.20;99.90
10826;DHT22;5466;55.898;14.094;2023-11-21T10:52:58;4.30;99.90
10826;DHT22;5466;55.898;14.094;2023-11-21T10:54:58;4.40;99.90
10826;DHT22;5466;55.898;14.094;2023-11-21T10:57:04;4.40;99.90
10826;DHT22;5466;55.898;14.094;2023-11-21T10:59:10;4.50;99.90
10826;DHT22;5466;55.898;14.094;2023-11-21T11:01:18;4.40;99.90
10826;DHT22;5466;55.898;14.094;2023-11-21T11:03:19;4.50;99.90
10826;DHT22;5466;55.898;14.094;2023-11-21T11:05:20;4.50;99.90
10826;DHT22;5466;55.898;14.094;2023-11-21T11:07:26;4.40;99.90
10826;DHT22;5466;55.898;14.094;2023-11-21T11:09:27;4.30;99.90
10826;DHT22;5466;55.898;14.094;2023-11-21T11:11:30;4.30;99.90
10826;DHT22;5466;55.898;14.094;2023-11-21T11:13:31;4.20;99.90
10826;DHT22;5466;55.898;14.094;2023-11-21T11:15:32;4.20;99.90
10826;DHT22;5466;55.898;14.094;2023-11-21T11:17:34;4.20;99.90
10826;DHT22;5466;55.898;14.094;2023-11-21T11:19:35;4.20;99.90
10826;DHT22;5466;55.898;14.094;2023-11-21T11:28:14;4.00;99.90
10826;DHT22;5466;55.898;14.094;2023-11-21T11:30:42;4.00;99.90
10826;DHT22;5466;55.898;14.094;2023-11-21T11:33:06;4.00;99.90
10826;DHT22;5466;55.898;14.094;2023-11-21T11:37:30;3.90;99.90
10826;DHT22;5466;55.898;14.094;2023-11-21T11:39:38;3.90;99.90
10826;DHT22;5466;55.898;14.094;2023-11-21T11:41:40;3.80;99.90
10826;DHT22;5466;55.898;14.094;2023-11-21T11:43:40;3.80;99.90
10826;DHT22;5466;55.898;14.094;2023-11-21T11:45:47;3.80;99.90
10826;DHT22;5466;55.898;14.094;2023-11-21T11:47:56;3.80;99.90
10826;DHT22;5466;55.898;14.094;2023-11-21T11:50:00;3.80;99.90
10826;DHT22;5466;55.898;14.094;2023-11-21T11:52:32;3.80;99.90
10826;DHT22;5466;55.898;14.094;2023-11-21T11:54:37;3.80;99.90
10826;DHT22;5466;55.898;14.094;2023-11-21T11:56:39;3.80;99.90
10826;DHT22;5466;55.898;14.094;2023-11-21T11:58:41;3.80;99.90
10826;DHT22;5466;55.898;14.094;2023-11-21T12:00:42;3.90;99.90
10826;DHT22;5466;55.898;14.094;2023-11-21T12:02:57;3.80;99.90
10826;DHT22;5466;55.898;14.094;2023-11-21T12:04:59;3.90;99.90
10826;DHT22;5466;55.898;14.094;2023-11-21T12:07:00;3.90;99.90
10826;DHT22;5466;55.898;14.094;2023-11-21T12:09:03;3.90;99.90
10826;DHT22;5466;55.898;14.094;2023-11-21T12:11:07;3.80;99.90
10826;DHT22;5466;55.898;14.094;2023-11-21T12:13:11;3.90;99.90
10826;DHT22;5466;55.898;14.094;2023-11-21T12:15:13;3.80;99.90
10826;DHT22;5466;55.898;14.094;2023-11-21T12:17:14;3.90;99.90
10826;DHT22;5466;55.898;14.094;2023-11-21T12:19:15;3.90;99.90
10826;DHT22;5466;55.898;14.094;2023-11-21T12:21:23;4.00;99.90
10826;DHT22;5466;55.898;14.094;2023-11-21T12:23:24;4.00;99.90
10826;DHT22;5466;55.898;14.094;2023-11-21T12:25:27;4.00;99.90
10826;DHT22;5466;55.898;14.094;2023-11-21T12:27:34;4.10;99.90
10826;DHT22;5466;55.898;14.094;2023-11-21T12:29:35;4.10;99.90
10826;DHT22;5466;55.898;14.094;2023-11-21T12:31:38;4.10;99.90
10826;DHT22;5466;55.898;14.094;2023-11-21T12:33:39;4.30;99.90
10826;DHT22;5466;55.898;14.094;2023-11-21T12:35:41;4.40;99.90
10826;DHT22;5466;55.898;14.094;2023-11-21T12:37:44;4.60;99.90
10826;DHT22;5466;55.898;14.094;2023-11-21T12:39:45;4.70;99.90
10826;DHT22;5466;55.898;14.094;2023-11-21T12:41:45;4.80;99.90
10826;DHT22;5466;55.898;14.094;2023-11-21T12:43:46;4.90;99.90
10826;DHT22;5466;55.898;14.094;2023-11-21T12:45:48;4.80;99.90
10826;DHT22;5466;55.898;14.094;2023-11-21T12:47:55;4.80;99.90
10826;DHT22;5466;55.898;14.094;2023-11-21T12:49:57;4.80;99.90
10826;DHT22;5466;55.898;14.094;2023-11-21T12:51:59;4.90;99.90
10826;DHT22;5466;55.898;14.094;2023-11-21T12:54:00;4.80;99.90
10826;DHT22;5466;55.898;14.094;2023-11-21T12:56:01;4.80;99.90
10826;DHT22;5466;55.898;14.094;2023-11-21T12:58:02;4.70;99.90
10826;DHT22;5466;55.898;14.094;2023-11-21T13:00:09;4.70;99.90
10826;DHT22;5466;55.898;14.094;2023-11-21T13:02:14;4.60;99.90
10826;DHT22;5466;55.898;14.094;2023-11-21T13:04:16;4.60;99.90
10826;DHT22;5466;55.898;14.094;2023-11-21T13:06:17;4.50;99.90
10826;DHT22;5466;55.898;14.094;2023-11-21T13:08:18;4.50;99.90
10826;DHT22;5466;55.898;14.094;2023-11-21T13:10:24;4.50;99.90